Airfield :
LOGIN :

Register | Disclaimer

   EN    FR    IT 

 










Legend :    VFR   Marginal VFR   IFR   Intensive IFR   Very Intensive IFR
Visi :
Ceiling :
>= 8 km
>= 3000ft
5 to 8 km
1000 to 3000 ft
1500m to 5 km
500 to 1000 ft
800 to 1500m
200 to 500 ft
< 800m
< 200 ft
Symbols :   Thunderstorms  Fog  Heavy snow  Heavy precipitations  Wind > 20 kt
SIGMETs :     Misc.  Thunderstorms  Icing  Turbulence  Mountain Waves  Volcanic Ashes






- Airport Elevation : 1079 ft


ETIK - Illesheim Air Base

CURRENT METAR :
  • 081356Z AUTO 10006KT 9999 CLR 33/11 A3013 RMK AO2 SLP189 T03270112 $

EXPIRED METARs :
  • 081256Z AUTO 33005KT 9999 CLR 32/12 A3014 RMK AO2 SLP192 T03200117 $
  • 081156Z AUTO 10003KT 9999 CLR 31/13 A3015 RMK AO2 SLP195 T03110129 10314 20186 57009 $

TAF TAF ETIK
Valid from the 07 at 22:00 until the 09 at 04:00 UTC


072215Z 0722/0904 VRB06KT 9999 FEW060 QNH3012INS
BECMG 0806/0807 08009KT 9999 SKC QNH3011INS TX32/0815Z TN12/0803Z LAST NO AMDS AFT 0722 NEXT 0922



MET'MAP, your aeronautical weather chart ! - Copyright ORBIFLY December 2007 - Disclaimer

ORBIFLY MET'MAP TEAM :

Programming & Development : Alexandra Zaïnal
Concept & original design : Baudouin d'Aumeries
Assistance for programming : Marc-Olivier Méhu
Technical & hardware support : Manuel Goepfert

Contact : metmap@orbifly.com




SOURCES & CREDITS :

   NOAA